sensor_id;sensor_type;location;lat;lon;timestamp;pressure;altitude;pressure_sealevel;temperature;humidity
33075;BME280;19433;51.292;6.868;2023-02-19T00:00:28;100599.00;;;8.46;100.00
33075;BME280;19433;51.292;6.868;2023-02-19T00:02:54;100589.50;;;8.49;100.00
33075;BME280;19433;51.292;6.868;2023-02-19T00:05:21;100601.56;;;8.48;100.00
33075;BME280;19433;51.292;6.868;2023-02-19T00:07:47;100587.03;;;8.39;100.00
33075;BME280;19433;51.292;6.868;2023-02-19T00:10:12;100589.38;;;8.42;100.00
33075;BME280;19433;51.292;6.868;2023-02-19T00:12:37;100596.06;;;8.48;100.00
33075;BME280;19433;51.292;6.868;2023-02-19T00:15:03;100599.53;;;8.41;100.00
33075;BME280;19433;51.292;6.868;2023-02-19T00:17:30;100593.84;;;8.43;100.00
33075;BME280;19433;51.292;6.868;2023-02-19T00:19:55;100583.25;;;8.40;100.00
33075;BME280;19433;51.292;6.868;2023-02-19T00:22:21;100589.31;;;8.35;100.00
33075;BME280;19433;51.292;6.868;2023-02-19T00:24:47;100582.16;;;8.41;100.00
33075;BME280;19433;51.292;6.868;2023-02-19T00:27:12;100574.13;;;8.39;100.00
33075;BME280;19433;51.292;6.868;2023-02-19T00:29:38;100583.25;;;8.40;100.00
33075;BME280;19433;51.292;6.868;2023-02-19T00:32:03;100580.84;;;8.37;100.00
33075;BME280;19433;51.292;6.868;2023-02-19T00:34:28;100577.72;;;8.40;100.00
33075;BME280;19433;51.292;6.868;2023-02-19T00:36:54;100567.66;;;8.32;100.00
33075;BME280;19433;51.292;6.868;2023-02-19T00:39:19;100572.28;;;8.32;100.00
33075;BME280;19433;51.292;6.868;2023-02-19T00:41:45;100569.69;;;8.30;100.00
33075;BME280;19433;51.292;6.868;2023-02-19T00:44:11;100569.53;;;8.32;100.00
33075;BME280;19433;51.292;6.868;2023-02-19T00:46:42;100572.28;;;8.32;100.00
33075;BME280;19433;51.292;6.868;2023-02-19T00:49:12;100574.50;;;8.36;100.00
33075;BME280;19433;51.292;6.868;2023-02-19T00:51:39;100568.84;;;8.30;100.00
33075;BME280;19433;51.292;6.868;2023-02-19T00:54:04;100566.78;;;8.32;100.00
33075;BME280;19433;51.292;6.868;2023-02-19T00:56:30;100571.06;;;8.34;100.00
33075;BME280;19433;51.292;6.868;2023-02-19T00:58:55;100564.16;;;8.38;100.00
33075;BME280;19433;51.292;6.868;2023-02-19T01:01:21;100557.59;;;8.39;100.00
33075;BME280;19433;51.292;6.868;2023-02-19T01:03:47;100556.94;;;8.37;100.00
33075;BME280;19433;51.292;6.868;2023-02-19T01:06:15;100563.47;;;8.36;100.00
33075;BME280;19433;51.292;6.868;2023-02-19T01:08:41;100570.22;;;8.34;100.00
33075;BME280;19433;51.292;6.868;2023-02-19T01:11:07;100569.84;;;8.37;100.00
33075;BME280;19433;51.292;6.868;2023-02-19T01:13:33;100569.00;;;8.36;100.00
33075;BME280;19433;51.292;6.868;2023-02-19T01:16:09;100567.09;;;8.37;100.00
33075;BME280;19433;51.292;6.868;2023-02-19T01:18:35;100563.84;;;8.33;100.00
33075;BME280;19433;51.292;6.868;2023-02-19T01:21:05;100565.91;;;8.31;100.00
33075;BME280;19433;51.292;6.868;2023-02-19T01:23:31;100568.50;;;8.33;100.00
33075;BME280;19433;51.292;6.868;2023-02-19T01:25:56;100560.75;;;8.28;100.00
33075;BME280;19433;51.292;6.868;2023-02-19T01:28:22;100554.22;;;8.29;100.00
33075;BME280;19433;51.292;6.868;2023-02-19T01:30:47;100548.19;;;8.34;100.00
33075;BME280;19433;51.292;6.868;2023-02-19T01:33:12;100544.06;;;8.30;100.00
33075;BME280;19433;51.292;6.868;2023-02-19T01:35:38;100554.03;;;8.31;100.00
33075;BME280;19433;51.292;6.868;2023-02-19T01:38:04;100559.38;;;8.32;100.00
33075;BME280;19433;51.292;6.868;2023-02-19T01:40:31;100564.91;;;8.32;100.00
33075;BME280;19433;51.292;6.868;2023-02-19T01:42:56;100560.91;;;8.35;100.00
33075;BME280;19433;51.292;6.868;2023-02-19T01:45:32;100561.09;;;8.33;100.00
33075;BME280;19433;51.292;6.868;2023-02-19T01:48:08;100566.41;;;8.35;100.00
33075;BME280;19433;51.292;6.868;2023-02-19T01:50:40;100553.19;;;8.30;100.00
33075;BME280;19433;51.292;6.868;2023-02-19T01:53:08;100550.75;;;8.35;100.00
33075;BME280;19433;51.292;6.868;2023-02-19T01:55:36;100554.91;;;8.31;100.00
33075;BME280;19433;51.292;6.868;2023-02-19T01:58:03;100555.59;;;8.33;100.00
33075;BME280;19433;51.292;6.868;2023-02-19T02:00:28;100563.84;;;8.33;100.00
33075;BME280;19433;51.292;6.868;2023-02-19T02:02:56;100564.91;;;8.32;100.00
33075;BME280;19433;51.292;6.868;2023-02-19T02:05:31;100566.78;;;8.32;100.00
33075;BME280;19433;51.292;6.868;2023-02-19T02:08:01;100569.53;;;8.32;100.00
33075;BME280;19433;51.292;6.868;2023-02-19T02:10:45;100571.59;;;8.30;100.00
33075;BME280;19433;51.292;6.868;2023-02-19T02:13:11;100575.19;;;8.30;100.00
33075;BME280;19433;51.292;6.868;2023-02-19T02:15:46;100557.31;;;8.34;100.00
33075;BME280;19433;51.292;6.868;2023-02-19T02:18:27;100570.69;;;8.37;100.00
33075;BME280;19433;51.292;6.868;2023-02-19T02:24:10;100575.25;;;8.45;100.00
33075;BME280;19433;51.292;6.868;2023-02-19T02:32:02;100561.78;;;8.35;100.00
33075;BME280;19433;51.292;6.868;2023-02-19T02:34:44;100582.09;;;8.34;100.00
33075;BME280;19433;51.292;6.868;2023-02-19T02:37:13;100583.47;;;8.30;100.00
33075;BME280;19433;51.292;6.868;2023-02-19T02:39:40;100561.28;;;8.32;100.00
33075;BME280;19433;51.292;6.868;2023-02-19T02:42:06;100556.31;;;8.27;100.00
33075;BME280;19433;51.292;6.868;2023-02-19T02:44:49;100567.47;;;8.34;100.00
33075;BME280;19433;51.292;6.868;2023-02-19T02:47:37;100565.09;;;8.45;100.00
33075;BME280;19433;51.292;6.868;2023-02-19T02:50:06;100576.88;;;8.39;100.00
33075;BME280;19433;51.292;6.868;2023-02-19T02:52:34;100576.41;;;8.36;100.00
33075;BME280;19433;51.292;6.868;2023-02-19T02:55:21;100571.94;;;8.35;100.00
33075;BME280;19433;51.292;6.868;2023-02-19T02:57:46;100572.88;;;8.42;100.00
33075;BME280;19433;51.292;6.868;2023-02-19T03:00:13;100577.94;;;8.30;100.00
33075;BME280;19433;51.292;6.868;2023-02-19T03:02:39;100570.25;;;8.26;100.00
33075;BME280;19433;51.292;6.868;2023-02-19T03:05:14;100579.75;;;8.23;100.00
33075;BME280;19433;51.292;6.868;2023-02-19T03:10:38;100581.56;;;8.31;100.00
33075;BME280;19433;51.292;6.868;2023-02-19T03:13:09;100586.41;;;8.29;100.00
33075;BME280;19433;51.292;6.868;2023-02-19T03:16:00;100582.50;;;8.23;100.00
33075;BME280;19433;51.292;6.868;2023-02-19T03:18:48;100580.13;;;8.20;100.00
33075;BME280;19433;51.292;6.868;2023-02-19T03:21:35;100589.13;;;8.14;100.00
33075;BME280;19433;51.292;6.868;2023-02-19T03:24:03;100597.00;;;8.17;100.00
33075;BME280;19433;51.292;6.868;2023-02-19T03:26:49;100592.72;;;8.15;100.00
33075;BME280;19433;51.292;6.868;2023-02-19T03:29:20;100587.41;;;8.13;100.00
33075;BME280;19433;51.292;6.868;2023-02-19T03:31:50;100597.84;;;8.18;100.00
33075;BME280;19433;51.292;6.868;2023-02-19T03:34:21;100594.63;;;8.14;100.00
33075;BME280;19433;51.292;6.868;2023-02-19T03:36:55;100597.09;;;8.09;100.00
33075;BME280;19433;51.292;6.868;2023-02-19T03:39:22;100602.38;;;8.10;100.00
33075;BME280;19433;51.292;6.868;2023-02-19T03:44:30;100608.59;;;8.27;100.00
33075;BME280;19433;51.292;6.868;2023-02-19T03:47:42;100609.53;;;8.20;100.00
33075;BME280;19433;51.292;6.868;2023-02-19T03:50:19;100613.03;;;8.13;100.00
33075;BME280;19433;51.292;6.868;2023-02-19T03:53:15;100612.78;;;8.23;100.00
33075;BME280;19433;51.292;6.868;2023-02-19T03:56:05;100614.00;;;8.21;100.00
33075;BME280;19433;51.292;6.868;2023-02-19T03:58:55;100615.72;;;8.22;100.00
33075;BME280;19433;51.292;6.868;2023-02-19T04:01:29;100614.38;;;8.18;100.00
33075;BME280;19433;51.292;6.868;2023-02-19T04:04:08;100613.50;;;8.17;100.00
33075;BME280;19433;51.292;6.868;2023-02-19T04:06:37;100613.81;;;8.22;100.00
33075;BME280;19433;51.292;6.868;2023-02-19T04:09:06;100622.63;;;8.18;100.00
33075;BME280;19433;51.292;6.868;2023-02-19T04:11:33;100622.81;;;8.16;100.00
33075;BME280;19433;51.292;6.868;2023-02-19T04:14:13;100626.69;;;8.07;100.00
33075;BME280;19433;51.292;6.868;2023-02-19T04:16:41;100636.25;;;8.11;100.00
33075;BME280;19433;51.292;6.868;2023-02-19T04:19:11;100633.72;;;8.09;100.00
33075;BME280;19433;51.292;6.868;2023-02-19T04:21:38;100646.81;;;8.07;100.00
33075;BME280;19433;51.292;6.868;2023-02-19T04:24:09;100657.81;;;8.07;100.00
33075;BME280;19433;51.292;6.868;2023-02-19T04:26:36;100647.34;;;8.03;100.00
33075;BME280;19433;51.292;6.868;2023-02-19T04:29:01;100654.19;;;8.07;100.00
33075;BME280;19433;51.292;6.868;2023-02-19T04:31:29;100656.00;;;8.15;100.00
33075;BME280;19433;51.292;6.868;2023-02-19T04:33:55;100666.47;;;8.19;100.00
33075;BME280;19433;51.292;6.868;2023-02-19T04:36:20;100661.53;;;8.15;100.00
33075;BME280;19433;51.292;6.868;2023-02-19T04:38:45;100663.41;;;8.14;100.00
33075;BME280;19433;51.292;6.868;2023-02-19T04:41:11;100674.84;;;8.03;100.00
33075;BME280;19433;51.292;6.868;2023-02-19T04:43:36;100678.31;;;7.97;100.00
33075;BME280;19433;51.292;6.868;2023-02-19T04:46:01;100682.63;;;7.99;100.00
33075;BME280;19433;51.292;6.868;2023-02-19T04:48:27;100674.00;;;8.02;100.00
33075;BME280;19433;51.292;6.868;2023-02-19T04:50:53;100673.31;;;8.00;100.00
33075;BME280;19433;51.292;6.868;2023-02-19T04:53:18;100674.84;;;8.03;100.00
33075;BME280;19433;51.292;6.868;2023-02-19T04:55:43;100677.00;;;8.16;100.00
33075;BME280;19433;51.292;6.868;2023-02-19T04:58:08;100678.88;;;8.15;100.00
33075;BME280;19433;51.292;6.868;2023-02-19T05:00:35;100689.84;;;8.23;100.00
33075;BME280;19433;51.292;6.868;2023-02-19T05:03:00;100695.22;;;8.17;100.00
33075;BME280;19433;51.292;6.868;2023-02-19T05:05:26;100702.31;;;8.11;100.00
33075;BME280;19433;51.292;6.868;2023-02-19T05:07:51;100706.84;;;8.04;100.00
33075;BME280;19433;51.292;6.868;2023-02-19T05:10:16;100704.09;;;8.04;100.00
33075;BME280;19433;51.292;6.868;2023-02-19T05:12:41;100710.94;;;8.08;100.00
33075;BME280;19433;51.292;6.868;2023-02-19T05:15:07;100716.75;;;8.13;100.00
33075;BME280;19433;51.292;6.868;2023-02-19T05:17:33;100712.44;;;8.10;100.00
33075;BME280;19433;51.292;6.868;2023-02-19T05:19:58;100719.56;;;8.05;100.00
33075;BME280;19433;51.292;6.868;2023-02-19T05:22:23;100721.50;;;7.96;100.00
33075;BME280;19433;51.292;6.868;2023-02-19T05:24:49;100726.03;;;7.89;100.00
33075;BME280;19433;51.292;6.868;2023-02-19T05:27:14;100729.44;;;7.91;100.00
33075;BME280;19433;51.292;6.868;2023-02-19T05:29:39;100740.09;;;7.94;100.00
33075;BME280;19433;51.292;6.868;2023-02-19T05:32:04;100737.53;;;7.93;100.00
33075;BME280;19433;51.292;6.868;2023-02-19T05:34:30;100743.88;;;7.93;100.00
33075;BME280;19433;51.292;6.868;2023-02-19T05:36:55;100739.72;;;7.97;100.00
33075;BME280;19433;51.292;6.868;2023-02-19T05:39:20;100743.88;;;7.93;100.00
33075;BME280;19433;51.292;6.868;2023-02-19T05:41:46;100749.69;;;7.98;100.00
33075;BME280;19433;51.292;6.868;2023-02-19T05:44:11;100753.16;;;7.92;100.00
33075;BME280;19433;51.292;6.868;2023-02-19T05:46:36;100745.97;;;7.83;100.00
33075;BME280;19433;51.292;6.868;2023-02-19T05:49:02;100744.94;;;7.84;100.00
33075;BME280;19433;51.292;6.868;2023-02-19T05:51:27;100747.53;;;7.86;100.00
33075;BME280;19433;51.292;6.868;2023-02-19T05:53:54;100741.41;;;7.75;100.00
33075;BME280;19433;51.292;6.868;2023-02-19T05:56:33;100757.91;;;7.75;100.00
33075;BME280;19433;51.292;6.868;2023-02-19T05:59:07;100758.00;;;7.90;100.00
33075;BME280;19433;51.292;6.868;2023-02-19T06:01:33;100750.09;;;7.87;100.00
33075;BME280;19433;51.292;6.868;2023-02-19T06:03:59;100756.13;;;7.83;100.00
33075;BME280;19433;51.292;6.868;2023-02-19T06:06:25;100758.34;;;7.87;100.00
33075;BME280;19433;51.292;6.868;2023-02-19T06:08:51;100755.31;;;7.74;100.00
33075;BME280;19433;51.292;6.868;2023-02-19T06:11:17;100766.84;;;7.69;100.00
33075;BME280;19433;51.292;6.868;2023-02-19T06:13:42;100770.28;;;7.71;100.00
33075;BME280;19433;51.292;6.868;2023-02-19T06:16:08;100776.66;;;7.72;100.00
33075;BME280;19433;51.292;6.868;2023-02-19T06:18:34;100769.75;;;7.76;100.00
33075;BME280;19433;51.292;6.868;2023-02-19T06:21:03;100774.91;;;7.79;100.00
33075;BME280;19433;51.292;6.868;2023-02-19T06:23:29;100777.66;;;7.79;100.00
33075;BME280;19433;51.292;6.868;2023-02-19T06:26:06;100775.63;;;7.73;100.00
33075;BME280;19433;51.292;6.868;2023-02-19T06:28:32;100776.66;;;7.64;100.00
33075;BME280;19433;51.292;6.868;2023-02-19T06:30:58;100779.41;;;7.72;100.00
33075;BME280;19433;51.292;6.868;2023-02-19T06:33:25;100790.41;;;7.72;100.00
33075;BME280;19433;51.292;6.868;2023-02-19T06:35:51;100805.34;;;7.69;100.00
33075;BME280;19433;51.292;6.868;2023-02-19T06:38:17;100798.81;;;7.70;100.00
33075;BME280;19433;51.292;6.868;2023-02-19T06:40:42;100802.44;;;7.71;100.00
33075;BME280;19433;51.292;6.868;2023-02-19T06:43:07;100803.13;;;7.65;100.00
33075;BME280;19433;51.292;6.868;2023-02-19T06:45:33;100799.09;;;7.45;100.00
33075;BME280;19433;51.292;6.868;2023-02-19T06:47:58;100803.03;;;7.42;100.00
33075;BME280;19433;51.292;6.868;2023-02-19T06:50:23;100812.09;;;7.51;100.00
33075;BME280;19433;51.292;6.868;2023-02-19T06:52:48;100816.09;;;7.48;100.00
33075;BME280;19433;51.292;6.868;2023-02-19T06:55:14;100816.09;;;7.48;100.00
33075;BME280;19433;51.292;6.868;2023-02-19T06:57:39;100824.34;;;7.48;100.00
33075;BME280;19433;51.292;6.868;2023-02-19T07:00:05;100837.91;;;7.41;100.00
33075;BME280;19433;51.292;6.868;2023-02-19T07:02:30;100831.72;;;7.39;100.00
33075;BME280;19433;51.292;6.868;2023-02-19T07:04:55;100848.72;;;7.51;100.00
33075;BME280;19433;51.292;6.868;2023-02-19T07:07:20;100841.50;;;7.58;100.00
33075;BME280;19433;51.292;6.868;2023-02-19T07:09:46;100842.88;;;7.62;100.00
33075;BME280;19433;51.292;6.868;2023-02-19T07:12:11;100839.78;;;7.57;100.00
33075;BME280;19433;51.292;6.868;2023-02-19T07:14:37;100858.84;;;7.59;100.00
33075;BME280;19433;51.292;6.868;2023-02-19T07:17:02;100855.91;;;7.52;100.00
33075;BME280;19433;51.292;6.868;2023-02-19T07:19:27;100870.19;;;7.56;100.00
33075;BME280;19433;51.292;6.868;2023-02-19T07:21:52;100860.56;;;7.60;100.00
33075;BME280;19433;51.292;6.868;2023-02-19T07:24:20;100858.63;;;7.68;100.00
33075;BME280;19433;51.292;6.868;2023-02-19T07:26:46;100869.31;;;7.63;100.00
33075;BME280;19433;51.292;6.868;2023-02-19T07:29:11;100872.59;;;7.59;100.00
33075;BME280;19433;51.292;6.868;2023-02-19T07:31:36;100891.84;;;7.59;100.00
33075;BME280;19433;51.292;6.868;2023-02-19T07:34:02;100893.03;;;7.56;100.00
33075;BME280;19433;51.292;6.868;2023-02-19T07:36:27;100889.25;;;7.57;100.00
33075;BME280;19433;51.292;6.868;2023-02-19T07:38:56;100897.16;;;7.60;100.00
33075;BME280;19433;51.292;6.868;2023-02-19T07:41:23;100895.75;;;7.64;100.00
33075;BME280;19433;51.292;6.868;2023-02-19T07:43:48;100903.16;;;7.64;100.00
33075;BME280;19433;51.292;6.868;2023-02-19T07:46:14;100903.34;;;7.62;100.00
33075;BME280;19433;51.292;6.868;2023-02-19T07:48:40;100921.53;;;7.71;100.00
33075;BME280;19433;51.292;6.868;2023-02-19T07:51:09;100928.94;;;7.71;100.00
33075;BME280;19433;51.292;6.868;2023-02-19T07:53:35;100931.38;;;7.58;100.00
33075;BME280;19433;51.292;6.868;2023-02-19T07:56:03;100936.16;;;7.72;100.00
33075;BME280;19433;51.292;6.868;2023-02-19T07:58:29;100934.44;;;7.79;100.00
33075;BME280;19433;51.292;6.868;2023-02-19T08:00:55;100924.47;;;7.78;100.00
33075;BME280;19433;51.292;6.868;2023-02-19T08:03:21;100936.13;;;7.80;100.00
33075;BME280;19433;51.292;6.868;2023-02-19T08:05:46;100935.09;;;7.81;100.00
33075;BME280;19433;51.292;6.868;2023-02-19T08:08:15;100948.84;;;7.81;100.00
33075;BME280;19433;51.292;6.868;2023-02-19T08:10:41;100949.19;;;7.86;100.00
33075;BME280;19433;51.292;6.868;2023-02-19T08:13:26;100951.94;;;7.86;100.00
33075;BME280;19433;51.292;6.868;2023-02-19T08:18:26;100959.31;;;7.94;100.00
33075;BME280;19433;51.292;6.868;2023-02-19T08:20:53;100961.72;;;7.89;100.00
33075;BME280;19433;51.292;6.868;2023-02-19T08:23:19;100967.38;;;8.03;100.00
33075;BME280;19433;51.292;6.868;2023-02-19T08:25:48;100970.94;;;8.20;100.00
33075;BME280;19433;51.292;6.868;2023-02-19T08:28:14;100970.75;;;8.22;100.00
33075;BME280;19433;51.292;6.868;2023-02-19T08:30:41;100980.75;;;8.23;100.00
33075;BME280;19433;51.292;6.868;2023-02-19T08:33:09;100975.94;;;8.25;100.00
33075;BME280;19433;51.292;6.868;2023-02-19T08:35:35;100979.88;;;8.22;100.00
33075;BME280;19433;51.292;6.868;2023-02-19T08:38:01;100976.38;;;8.44;100.00
33075;BME280;19433;51.292;6.868;2023-02-19T08:40:27;100962.50;;;8.22;100.00
33075;BME280;19433;51.292;6.868;2023-02-19T08:42:53;100957.00;;;8.13;100.00
33075;BME280;19433;51.292;6.868;2023-02-19T08:45:18;100972.19;;;8.01;100.00
33075;BME280;19433;51.292;6.868;2023-02-19T08:47:44;100968.03;;;8.13;100.00
33075;BME280;19433;51.292;6.868;2023-02-19T08:50:09;100978.00;;;8.23;100.00
33075;BME280;19433;51.292;6.868;2023-02-19T08:52:35;100976.97;;;8.16;100.00
33075;BME280;19433;51.292;6.868;2023-02-19T08:55:02;100969.59;;;8.08;100.00
33075;BME280;19433;51.292;6.868;2023-02-19T08:57:28;100984.91;;;8.02;100.00
33075;BME280;19433;51.292;6.868;2023-02-19T08:59:54;100983.53;;;8.06;100.00
33075;BME280;19433;51.292;6.868;2023-02-19T09:02:22;100986.25;;;8.15;100.00
33075;BME280;19433;51.292;6.868;2023-02-19T09:04:47;100980.56;;;8.16;100.00
33075;BME280;19433;51.292;6.868;2023-02-19T09:07:12;100991.38;;;8.26;100.00
33075;BME280;19433;51.292;6.868;2023-02-19T09:09:38;100986.88;;;8.41;100.00
33075;BME280;19433;51.292;6.868;2023-02-19T09:12:08;100984.00;;;8.18;100.00
33075;BME280;19433;51.292;6.868;2023-02-19T09:14:34;100991.56;;;8.32;100.00
33075;BME280;19433;51.292;6.868;2023-02-19T09:17:01;100998.44;;;8.36;100.00
33075;BME280;19433;51.292;6.868;2023-02-19T09:19:26;101002.19;;;8.43;100.00
33075;BME280;19433;51.292;6.868;2023-02-19T09:21:52;101012.97;;;8.61;100.00
33075;BME280;19433;51.292;6.868;2023-02-19T09:24:18;101013.44;;;8.73;100.00
33075;BME280;19433;51.292;6.868;2023-02-19T09:26:43;101016.44;;;8.86;100.00
33075;BME280;19433;51.292;6.868;2023-02-19T09:29:09;101020.38;;;8.61;100.00
33075;BME280;19433;51.292;6.868;2023-02-19T09:31:35;101020.44;;;8.44;100.00
33075;BME280;19433;51.292;6.868;2023-02-19T09:34:00;101023.69;;;8.48;100.00
33075;BME280;19433;51.292;6.868;2023-02-19T09:36:25;101028.69;;;8.53;100.00
33075;BME280;19433;51.292;6.868;2023-02-19T09:38:51;101036.38;;;8.65;100.00
33075;BME280;19433;51.292;6.868;2023-02-19T09:41:30;101035.50;;;8.65;100.00
33075;BME280;19433;51.292;6.868;2023-02-19T09:43:57;101030.50;;;8.68;100.00
33075;BME280;19433;51.292;6.868;2023-02-19T09:51:47;101038.41;;;8.71;100.00
33075;BME280;19433;51.292;6.868;2023-02-19T09:54:22;101041.72;;;8.59;100.00
33075;BME280;19433;51.292;6.868;2023-02-19T09:56:49;101046.47;;;8.34;100.00
33075;BME280;19433;51.292;6.868;2023-02-19T09:59:20;101051.06;;;8.41;100.00
33075;BME280;19433;51.292;6.868;2023-02-19T10:01:47;101063.16;;;8.32;100.00
33075;BME280;19433;51.292;6.868;2023-02-19T10:04:13;101068.13;;;8.37;100.00
33075;BME280;19433;51.292;6.868;2023-02-19T10:06:40;101074.69;;;8.36;100.00
33075;BME280;19433;51.292;6.868;2023-02-19T10:09:21;101083.59;;;8.46;100.00
33075;BME280;19433;51.292;6.868;2023-02-19T10:11:50;101086.59;;;8.84;100.00
33075;BME280;19433;51.292;6.868;2023-02-19T10:14:22;101087.63;;;8.82;100.00
33075;BME280;19433;51.292;6.868;2023-02-19T10:16:51;101111.09;;;9.01;100.00
33075;BME280;19433;51.292;6.868;2023-02-19T10:19:16;101121.25;;;9.09;100.00
33075;BME280;19433;51.292;6.868;2023-02-19T10:21:42;101116.88;;;9.23;100.00
33075;BME280;19433;51.292;6.868;2023-02-19T10:24:17;101114.66;;;9.18;100.00
33075;BME280;19433;51.292;6.868;2023-02-19T10:26:44;101110.94;;;9.34;100.00
33075;BME280;19433;51.292;6.868;2023-02-19T10:29:10;101106.88;;;9.22;100.00
33075;BME280;19433;51.292;6.868;2023-02-19T10:31:35;101129.03;;;9.36;100.00
33075;BME280;19433;51.292;6.868;2023-02-19T10:34:00;101135.19;;;9.15;100.00
33075;BME280;19433;51.292;6.868;2023-02-19T10:36:32;101128.31;;;9.11;100.00
33075;BME280;19433;51.292;6.868;2023-02-19T10:38:59;101136.06;;;9.47;100.00
33075;BME280;19433;51.292;6.868;2023-02-19T10:41:26;101136.88;;;9.78;100.00
33075;BME280;19433;51.292;6.868;2023-02-19T10:43:53;101142.09;;;9.96;100.00
33075;BME280;19433;51.292;6.868;2023-02-19T10:46:31;101147.00;;;9.86;100.00
33075;BME280;19433;51.292;6.868;2023-02-19T10:49:00;101134.69;;;9.74;100.00
33075;BME280;19433;51.292;6.868;2023-02-19T10:51:38;101136.44;;;9.67;100.00
33075;BME280;19433;51.292;6.868;2023-02-19T10:54:18;101147.19;;;9.62;100.00
33075;BME280;19433;51.292;6.868;2023-02-19T10:56:43;101156.22;;;9.47;100.00
33075;BME280;19433;51.292;6.868;2023-02-19T10:59:22;101152.47;;;9.40;100.00
33075;BME280;19433;51.292;6.868;2023-02-19T11:02:34;101157.66;;;9.35;100.00
33075;BME280;19433;51.292;6.868;2023-02-19T11:04:41;101154.09;;;9.27;100.00
33075;BME280;19433;51.292;6.868;2023-02-19T11:07:11;101148.78;;;9.17;100.00
33075;BME280;19433;51.292;6.868;2023-02-19T11:09:40;101161.03;;;9.14;100.00
33075;BME280;19433;51.292;6.868;2023-02-19T11:12:07;101167.75;;;9.12;100.00
33075;BME280;19433;51.292;6.868;2023-02-19T11:14:34;101174.94;;;9.21;100.00
33075;BME280;19433;51.292;6.868;2023-02-19T11:17:01;101179.09;;;9.17;100.00
33075;BME280;19433;51.292;6.868;2023-02-19T11:19:39;101168.06;;;9.25;100.00
33075;BME280;19433;51.292;6.868;2023-02-19T11:22:30;101171.72;;;9.48;100.00
33075;BME280;19433;51.292;6.868;2023-02-19T11:25:04;101183.53;;;9.65;100.00
33075;BME280;19433;51.292;6.868;2023-02-19T11:27:31;101167.72;;;9.82;100.00
33075;BME280;19433;51.292;6.868;2023-02-19T11:31:09;101177.00;;;10.12;100.00
33075;BME280;19433;51.292;6.868;2023-02-19T11:36:35;101159.19;;;9.69;100.00
33075;BME280;19433;51.292;6.868;2023-02-19T11:39:20;101147.31;;;8.90;100.00
33075;BME280;19433;51.292;6.868;2023-02-19T11:50:07;101168.44;;;8.51;100.00
33075;BME280;19433;51.292;6.868;2023-02-19T11:52:46;101166.38;;;8.44;100.00
33075;BME280;19433;51.292;6.868;2023-02-19T12:01:13;101159.94;;;9.32;100.00
33075;BME280;19433;51.292;6.868;2023-02-19T12:06:43;101155.91;;;9.73;100.00
33075;BME280;19433;51.292;6.868;2023-02-19T12:09:35;101163.16;;;9.66;100.00
33075;BME280;19433;51.292;6.868;2023-02-19T12:17:55;101162.28;;;9.43;100.00
33075;BME280;19433;51.292;6.868;2023-02-19T12:20:36;101167.06;;;9.49;100.00
33075;BME280;19433;51.292;6.868;2023-02-19T12:31:29;101177.00;;;9.89;100.00
33075;BME280;19433;51.292;6.868;2023-02-19T12:36:38;101177.03;;;10.35;100.00
33075;BME280;19433;51.292;6.868;2023-02-19T12:44:41;101179.31;;;10.69;100.00
33075;BME280;19433;51.292;6.868;2023-02-19T12:47:18;101177.31;;;10.77;100.00
33075;BME280;19433;51.292;6.868;2023-02-19T12:50:03;101180.97;;;11.07;100.00
33075;BME280;19433;51.292;6.868;2023-02-19T12:52:37;101177.03;;;10.87;100.00
33075;BME280;19433;51.292;6.868;2023-02-19T12:55:26;101179.88;;;10.64;100.00
33075;BME280;19433;51.292;6.868;2023-02-19T12:57:54;101180.59;;;10.58;100.00
33075;BME280;19433;51.292;6.868;2023-02-19T13:00:37;101182.78;;;10.48;100.00
33075;BME280;19433;51.292;6.868;2023-02-19T13:03:13;101186.41;;;10.26;100.00
33075;BME280;19433;51.292;6.868;2023-02-19T13:06:00;101179.69;;;9.97;100.00
33075;BME280;19433;51.292;6.868;2023-02-19T13:08:31;101190.66;;;9.82;100.00
33075;BME280;19433;51.292;6.868;2023-02-19T13:11:02;101187.16;;;9.66;100.00
33075;BME280;19433;51.292;6.868;2023-02-19T13:14:02;101189.41;;;9.31;100.00
33075;BME280;19433;51.292;6.868;2023-02-19T13:16:29;101189.06;;;9.26;100.00
33075;BME280;19433;51.292;6.868;2023-02-19T13:18:59;101186.13;;;9.28;100.00
33075;BME280;19433;51.292;6.868;2023-02-19T13:21:29;101179.88;;;9.42;100.00
33075;BME280;19433;51.292;6.868;2023-02-19T13:24:22;101187.31;;;9.33;100.00
33075;BME280;19433;51.292;6.868;2023-02-19T13:27:07;101184.53;;;9.33;100.00
33075;BME280;19433;51.292;6.868;2023-02-19T13:35:24;101182.97;;;9.39;100.00
33075;BME280;19433;51.292;6.868;2023-02-19T13:37:51;101180.72;;;9.42;100.00
33075;BME280;19433;51.292;6.868;2023-02-19T13:40:24;101194.97;;;9.54;100.00
33075;BME280;19433;51.292;6.868;2023-02-19T13:42:53;101191.13;;;9.63;100.00
33075;BME280;19433;51.292;6.868;2023-02-19T13:45:31;101204.44;;;9.60;100.00
33075;BME280;19433;51.292;6.868;2023-02-19T13:48:00;101194.94;;;9.62;100.00
33075;BME280;19433;51.292;6.868;2023-02-19T13:50:31;101197.09;;;9.44;100.00
33075;BME280;19433;51.292;6.868;2023-02-19T13:52:59;101205.84;;;9.16;100.00
33075;BME280;19433;51.292;6.868;2023-02-19T13:55:46;101207.50;;;9.26;100.00
33075;BME280;19433;51.292;6.868;2023-02-19T14:00:56;101224.53;;;9.37;100.00
33075;BME280;19433;51.292;6.868;2023-02-19T14:06:14;101232.47;;;9.71;100.00
33075;BME280;19433;51.292;6.868;2023-02-19T14:14:26;101237.53;;;9.60;100.00
33075;BME280;19433;51.292;6.868;2023-02-19T14:16:57;101244.03;;;9.67;100.00
33075;BME280;19433;51.292;6.868;2023-02-19T14:25:46;101252.94;;;9.85;100.00
33075;BME280;19433;51.292;6.868;2023-02-19T14:28:23;101261.25;;;10.08;100.00
33075;BME280;19433;51.292;6.868;2023-02-19T14:33:17;101256.59;;;9.77;100.00